sensor_id;sensor_type;location;lat;lon;timestamp;P1;durP1;ratioP1;P2;durP2;ratioP2
43771;SDS011;59066;54.782;32.024;2023-08-17T00:00:48;11.70;;;7.82;;
43771;SDS011;59066;54.782;32.024;2023-08-17T00:03:15;8.18;;;7.10;;
43771;SDS011;59066;54.782;32.024;2023-08-17T00:05:43;11.43;;;8.18;;
43771;SDS011;59066;54.782;32.024;2023-08-17T00:08:10;8.43;;;7.50;;
43771;SDS011;59066;54.782;32.024;2023-08-17T00:10:38;7.95;;;6.43;;
43771;SDS011;59066;54.782;32.024;2023-08-17T00:13:05;8.45;;;6.82;;
43771;SDS011;59066;54.782;32.024;2023-08-17T00:15:33;8.30;;;6.47;;
43771;SDS011;59066;54.782;32.024;2023-08-17T00:18:00;8.25;;;7.45;;
43771;SDS011;59066;54.782;32.024;2023-08-17T00:20:28;9.25;;;7.15;;
43771;SDS011;59066;54.782;32.024;2023-08-17T00:22:56;8.50;;;7.05;;
43771;SDS011;59066;54.782;32.024;2023-08-17T00:25:23;8.90;;;7.60;;
43771;SDS011;59066;54.782;32.024;2023-08-17T00:27:51;8.43;;;7.43;;
43771;SDS011;59066;54.782;32.024;2023-08-17T00:30:18;11.40;;;7.38;;
43771;SDS011;59066;54.782;32.024;2023-08-17T00:32:46;9.30;;;8.13;;
43771;SDS011;59066;54.782;32.024;2023-08-17T00:35:13;10.05;;;7.18;;
43771;SDS011;59066;54.782;32.024;2023-08-17T00:37:41;10.43;;;7.97;;
43771;SDS011;59066;54.782;32.024;2023-08-17T00:40:09;10.45;;;7.82;;
43771;SDS011;59066;54.782;32.024;2023-08-17T00:42:36;10.13;;;7.95;;
43771;SDS011;59066;54.782;32.024;2023-08-17T00:45:04;10.10;;;8.05;;
43771;SDS011;59066;54.782;32.024;2023-08-17T00:47:32;9.82;;;7.20;;
43771;SDS011;59066;54.782;32.024;2023-08-17T00:49:59;10.02;;;8.02;;
43771;SDS011;59066;54.782;32.024;2023-08-17T00:52:28;10.30;;;8.18;;
43771;SDS011;59066;54.782;32.024;2023-08-17T00:54:56;10.55;;;8.07;;
43771;SDS011;59066;54.782;32.024;2023-08-17T01:00:02;9.48;;;8.40;;
43771;SDS011;59066;54.782;32.024;2023-08-17T01:03:13;11.48;;;8.05;;
43771;SDS011;59066;54.782;32.024;2023-08-17T01:05:43;9.68;;;8.48;;
43771;SDS011;59066;54.782;32.024;2023-08-17T01:08:11;10.23;;;8.43;;
43771;SDS011;59066;54.782;32.024;2023-08-17T01:13:24;13.82;;;9.55;;
43771;SDS011;59066;54.782;32.024;2023-08-17T01:15:58;9.50;;;8.60;;
43771;SDS011;59066;54.782;32.024;2023-08-17T01:18:29;10.95;;;9.13;;
43771;SDS011;59066;54.782;32.024;2023-08-17T01:21:08;10.13;;;9.00;;
43771;SDS011;59066;54.782;32.024;2023-08-17T01:23:38;10.05;;;8.98;;
43771;SDS011;59066;54.782;32.024;2023-08-17T01:26:05;10.82;;;8.45;;
43771;SDS011;59066;54.782;32.024;2023-08-17T01:28:33;12.20;;;8.45;;
43771;SDS011;59066;54.782;32.024;2023-08-17T01:31:03;9.77;;;8.55;;
43771;SDS011;59066;54.782;32.024;2023-08-17T01:33:37;8.75;;;7.85;;
43771;SDS011;59066;54.782;32.024;2023-08-17T01:39:08;11.85;;;8.98;;
43771;SDS011;59066;54.782;32.024;2023-08-17T01:41:38;11.07;;;9.18;;
43771;SDS011;59066;54.782;32.024;2023-08-17T01:44:08;8.77;;;7.90;;
43771;SDS011;59066;54.782;32.024;2023-08-17T01:46:35;9.80;;;8.32;;
43771;SDS011;59066;54.782;32.024;2023-08-17T01:49:04;9.35;;;8.25;;
43771;SDS011;59066;54.782;32.024;2023-08-17T01:51:31;10.10;;;8.07;;
43771;SDS011;59066;54.782;32.024;2023-08-17T01:53:59;10.18;;;8.02;;
43771;SDS011;59066;54.782;32.024;2023-08-17T01:56:26;11.20;;;8.60;;
43771;SDS011;59066;54.782;32.024;2023-08-17T01:58:53;10.35;;;8.98;;
43771;SDS011;59066;54.782;32.024;2023-08-17T02:01:21;12.93;;;8.75;;
43771;SDS011;59066;54.782;32.024;2023-08-17T02:03:49;9.48;;;8.55;;
43771;SDS011;59066;54.782;32.024;2023-08-17T02:06:16;8.93;;;8.07;;
43771;SDS011;59066;54.782;32.024;2023-08-17T02:08:45;10.85;;;8.32;;
43771;SDS011;59066;54.782;32.024;2023-08-17T02:11:13;9.85;;;8.40;;
43771;SDS011;59066;54.782;32.024;2023-08-17T02:13:41;9.32;;;8.02;;
43771;SDS011;59066;54.782;32.024;2023-08-17T02:16:08;9.30;;;8.00;;
43771;SDS011;59066;54.782;32.024;2023-08-17T02:18:36;11.52;;;9.10;;
43771;SDS011;59066;54.782;32.024;2023-08-17T02:21:03;11.32;;;9.02;;
43771;SDS011;59066;54.782;32.024;2023-08-17T02:23:31;10.07;;;8.75;;
43771;SDS011;59066;54.782;32.024;2023-08-17T02:25:58;10.80;;;8.75;;
43771;SDS011;59066;54.782;32.024;2023-08-17T02:28:25;12.38;;;9.30;;
43771;SDS011;59066;54.782;32.024;2023-08-17T02:30:56;10.40;;;9.30;;
43771;SDS011;59066;54.782;32.024;2023-08-17T02:33:27;11.57;;;10.35;;
43771;SDS011;59066;54.782;32.024;2023-08-17T02:35:54;10.80;;;9.70;;
43771;SDS011;59066;54.782;32.024;2023-08-17T02:38:22;10.18;;;8.63;;
43771;SDS011;59066;54.782;32.024;2023-08-17T02:40:49;12.88;;;9.88;;
43771;SDS011;59066;54.782;32.024;2023-08-17T02:43:17;13.35;;;9.43;;
43771;SDS011;59066;54.782;32.024;2023-08-17T02:45:44;11.90;;;8.45;;
43771;SDS011;59066;54.782;32.024;2023-08-17T02:48:12;11.60;;;8.68;;
43771;SDS011;59066;54.782;32.024;2023-08-17T02:50:40;9.75;;;8.73;;
43771;SDS011;59066;54.782;32.024;2023-08-17T02:53:07;11.00;;;8.23;;
43771;SDS011;59066;54.782;32.024;2023-08-17T02:55:35;10.45;;;9.32;;
43771;SDS011;59066;54.782;32.024;2023-08-17T02:58:02;11.48;;;8.73;;
43771;SDS011;59066;54.782;32.024;2023-08-17T03:00:30;10.98;;;9.38;;
43771;SDS011;59066;54.782;32.024;2023-08-17T03:02:57;13.88;;;9.25;;
43771;SDS011;59066;54.782;32.024;2023-08-17T03:05:24;11.18;;;9.10;;
43771;SDS011;59066;54.782;32.024;2023-08-17T03:07:53;13.90;;;9.75;;
43771;SDS011;59066;54.782;32.024;2023-08-17T03:10:21;12.65;;;9.45;;
43771;SDS011;59066;54.782;32.024;2023-08-17T03:12:49;11.43;;;9.05;;
43771;SDS011;59066;54.782;32.024;2023-08-17T03:15:17;14.40;;;10.32;;
43771;SDS011;59066;54.782;32.024;2023-08-17T03:17:44;12.75;;;10.05;;
43771;SDS011;59066;54.782;32.024;2023-08-17T03:20:12;19.17;;;10.98;;
43771;SDS011;59066;54.782;32.024;2023-08-17T03:22:39;13.93;;;10.18;;
43771;SDS011;59066;54.782;32.024;2023-08-17T03:25:07;17.55;;;9.90;;
43771;SDS011;59066;54.782;32.024;2023-08-17T03:27:35;11.57;;;10.02;;
43771;SDS011;59066;54.782;32.024;2023-08-17T03:30:04;13.57;;;9.77;;
43771;SDS011;59066;54.782;32.024;2023-08-17T03:32:32;16.10;;;9.00;;
43771;SDS011;59066;54.782;32.024;2023-08-17T03:34:59;17.02;;;10.63;;
43771;SDS011;59066;54.782;32.024;2023-08-17T03:37:27;11.05;;;9.02;;
43771;SDS011;59066;54.782;32.024;2023-08-17T03:39:54;16.77;;;9.60;;
43771;SDS011;59066;54.782;32.024;2023-08-17T03:42:22;12.82;;;10.65;;
43771;SDS011;59066;54.782;32.024;2023-08-17T03:44:49;17.20;;;10.52;;
43771;SDS011;59066;54.782;32.024;2023-08-17T03:47:17;14.90;;;10.30;;
43771;SDS011;59066;54.782;32.024;2023-08-17T03:49:45;10.73;;;8.68;;
43771;SDS011;59066;54.782;32.024;2023-08-17T03:52:13;14.18;;;10.32;;
43771;SDS011;59066;54.782;32.024;2023-08-17T03:54:40;10.35;;;8.23;;
43771;SDS011;59066;54.782;32.024;2023-08-17T03:57:08;15.93;;;9.30;;
43771;SDS011;59066;54.782;32.024;2023-08-17T03:59:35;16.27;;;9.88;;
43771;SDS011;59066;54.782;32.024;2023-08-17T04:02:03;14.75;;;8.43;;
43771;SDS011;59066;54.782;32.024;2023-08-17T04:04:30;17.77;;;9.25;;
43771;SDS011;59066;54.782;32.024;2023-08-17T04:06:58;8.10;;;6.82;;
43771;SDS011;59066;54.782;32.024;2023-08-17T04:09:25;10.23;;;7.72;;
43771;SDS011;59066;54.782;32.024;2023-08-17T04:11:53;10.50;;;8.63;;
43771;SDS011;59066;54.782;32.024;2023-08-17T04:14:22;12.80;;;8.88;;
43771;SDS011;59066;54.782;32.024;2023-08-17T04:16:49;10.38;;;7.68;;
43771;SDS011;59066;54.782;32.024;2023-08-17T04:19:17;11.70;;;9.10;;
43771;SDS011;59066;54.782;32.024;2023-08-17T04:21:45;10.32;;;7.18;;
43771;SDS011;59066;54.782;32.024;2023-08-17T04:24:13;9.68;;;8.68;;
43771;SDS011;59066;54.782;32.024;2023-08-17T04:26:41;11.07;;;8.77;;
43771;SDS011;59066;54.782;32.024;2023-08-17T04:29:08;11.85;;;8.55;;
43771;SDS011;59066;54.782;32.024;2023-08-17T04:31:36;10.90;;;7.80;;
43771;SDS011;59066;54.782;32.024;2023-08-17T04:34:03;10.90;;;8.02;;
43771;SDS011;59066;54.782;32.024;2023-08-17T04:36:31;12.02;;;8.00;;
43771;SDS011;59066;54.782;32.024;2023-08-17T04:38:59;19.77;;;11.45;;
43771;SDS011;59066;54.782;32.024;2023-08-17T04:41:26;13.88;;;7.68;;
43771;SDS011;59066;54.782;32.024;2023-08-17T04:43:54;12.25;;;8.57;;
43771;SDS011;59066;54.782;32.024;2023-08-17T04:46:21;11.40;;;8.07;;
43771;SDS011;59066;54.782;32.024;2023-08-17T04:48:49;14.45;;;8.95;;
43771;SDS011;59066;54.782;32.024;2023-08-17T04:51:16;17.42;;;8.32;;
43771;SDS011;59066;54.782;32.024;2023-08-17T04:53:44;12.82;;;8.65;;
43771;SDS011;59066;54.782;32.024;2023-08-17T04:56:12;13.07;;;8.88;;
43771;SDS011;59066;54.782;32.024;2023-08-17T04:58:39;13.88;;;9.80;;
43771;SDS011;59066;54.782;32.024;2023-08-17T05:01:08;10.82;;;8.90;;
43771;SDS011;59066;54.782;32.024;2023-08-17T05:03:37;13.23;;;9.98;;
43771;SDS011;59066;54.782;32.024;2023-08-17T05:06:04;16.77;;;9.80;;
43771;SDS011;59066;54.782;32.024;2023-08-17T05:08:32;10.93;;;9.18;;
43771;SDS011;59066;54.782;32.024;2023-08-17T05:11:00;15.07;;;8.48;;
43771;SDS011;59066;54.782;32.024;2023-08-17T05:13:28;10.55;;;9.45;;
43771;SDS011;59066;54.782;32.024;2023-08-17T05:15:59;12.93;;;8.50;;
43771;SDS011;59066;54.782;32.024;2023-08-17T05:18:28;11.63;;;8.15;;
43771;SDS011;59066;54.782;32.024;2023-08-17T05:20:56;14.55;;;10.07;;
43771;SDS011;59066;54.782;32.024;2023-08-17T05:23:23;17.88;;;8.65;;
43771;SDS011;59066;54.782;32.024;2023-08-17T05:25:51;13.30;;;8.68;;
43771;SDS011;59066;54.782;32.024;2023-08-17T05:28:19;10.82;;;8.93;;
43771;SDS011;59066;54.782;32.024;2023-08-17T05:30:46;13.80;;;8.93;;
43771;SDS011;59066;54.782;32.024;2023-08-17T05:33:14;14.32;;;8.80;;
43771;SDS011;59066;54.782;32.024;2023-08-17T05:35:41;10.10;;;8.85;;
43771;SDS011;59066;54.782;32.024;2023-08-17T05:38:09;15.65;;;9.60;;
43771;SDS011;59066;54.782;32.024;2023-08-17T05:40:36;10.30;;;9.10;;
43771;SDS011;59066;54.782;32.024;2023-08-17T05:43:04;12.82;;;9.02;;
43771;SDS011;59066;54.782;32.024;2023-08-17T05:45:31;11.07;;;8.95;;
43771;SDS011;59066;54.782;32.024;2023-08-17T05:47:59;19.77;;;8.95;;
43771;SDS011;59066;54.782;32.024;2023-08-17T05:50:26;15.00;;;8.63;;
43771;SDS011;59066;54.782;32.024;2023-08-17T05:52:54;11.88;;;8.52;;
43771;SDS011;59066;54.782;32.024;2023-08-17T05:55:22;15.80;;;10.13;;
43771;SDS011;59066;54.782;32.024;2023-08-17T05:57:49;9.50;;;8.60;;
43771;SDS011;59066;54.782;32.024;2023-08-17T06:00:17;15.27;;;9.55;;
43771;SDS011;59066;54.782;32.024;2023-08-17T06:02:45;13.00;;;9.50;;
43771;SDS011;59066;54.782;32.024;2023-08-17T06:05:17;9.80;;;8.80;;
43771;SDS011;59066;54.782;32.024;2023-08-17T06:07:44;14.25;;;8.90;;
43771;SDS011;59066;54.782;32.024;2023-08-17T06:10:12;14.13;;;9.23;;
43771;SDS011;59066;54.782;32.024;2023-08-17T06:12:39;14.30;;;10.10;;
43771;SDS011;59066;54.782;32.024;2023-08-17T06:15:07;13.27;;;9.57;;
43771;SDS011;59066;54.782;32.024;2023-08-17T06:17:34;16.35;;;12.00;;
43771;SDS011;59066;54.782;32.024;2023-08-17T06:20:02;10.43;;;8.27;;
43771;SDS011;59066;54.782;32.024;2023-08-17T06:22:30;13.23;;;8.85;;
43771;SDS011;59066;54.782;32.024;2023-08-17T06:24:57;11.77;;;8.70;;
43771;SDS011;59066;54.782;32.024;2023-08-17T06:27:25;12.90;;;9.40;;
43771;SDS011;59066;54.782;32.024;2023-08-17T06:29:53;12.32;;;9.00;;
43771;SDS011;59066;54.782;32.024;2023-08-17T06:32:20;12.00;;;9.30;;
43771;SDS011;59066;54.782;32.024;2023-08-17T06:34:48;10.90;;;8.48;;
43771;SDS011;59066;54.782;32.024;2023-08-17T06:37:15;12.75;;;9.68;;
43771;SDS011;59066;54.782;32.024;2023-08-17T06:39:43;17.50;;;10.63;;
43771;SDS011;59066;54.782;32.024;2023-08-17T06:42:10;18.08;;;9.52;;
43771;SDS011;59066;54.782;32.024;2023-08-17T06:44:38;12.18;;;9.13;;
43771;SDS011;59066;54.782;32.024;2023-08-17T06:47:05;10.23;;;8.77;;
43771;SDS011;59066;54.782;32.024;2023-08-17T06:49:33;11.90;;;10.45;;
43771;SDS011;59066;54.782;32.024;2023-08-17T06:52:01;20.27;;;14.13;;
43771;SDS011;59066;54.782;32.024;2023-08-17T06:54:28;16.00;;;11.15;;
43771;SDS011;59066;54.782;32.024;2023-08-17T06:56:58;11.02;;;9.07;;
43771;SDS011;59066;54.782;32.024;2023-08-17T06:59:26;14.35;;;10.48;;
43771;SDS011;59066;54.782;32.024;2023-08-17T07:01:53;12.55;;;9.82;;
43771;SDS011;59066;54.782;32.024;2023-08-17T07:04:21;11.50;;;9.95;;
43771;SDS011;59066;54.782;32.024;2023-08-17T07:06:48;15.55;;;12.35;;
43771;SDS011;59066;54.782;32.024;2023-08-17T07:09:16;13.25;;;9.95;;
43771;SDS011;59066;54.782;32.024;2023-08-17T07:11:43;14.00;;;11.02;;
43771;SDS011;59066;54.782;32.024;2023-08-17T07:14:11;12.38;;;11.05;;
43771;SDS011;59066;54.782;32.024;2023-08-17T07:16:39;14.07;;;11.23;;
43771;SDS011;59066;54.782;32.024;2023-08-17T07:19:06;12.27;;;9.75;;
43771;SDS011;59066;54.782;32.024;2023-08-17T07:21:34;22.55;;;20.42;;
43771;SDS011;59066;54.782;32.024;2023-08-17T07:24:11;11.52;;;10.15;;
43771;SDS011;59066;54.782;32.024;2023-08-17T07:26:42;11.35;;;8.90;;
43771;SDS011;59066;54.782;32.024;2023-08-17T07:29:10;9.25;;;8.27;;
43771;SDS011;59066;54.782;32.024;2023-08-17T07:31:38;9.90;;;8.90;;
43771;SDS011;59066;54.782;32.024;2023-08-17T07:34:09;17.77;;;11.10;;
43771;SDS011;59066;54.782;32.024;2023-08-17T07:36:36;10.15;;;9.10;;
43771;SDS011;59066;54.782;32.024;2023-08-17T07:39:04;16.42;;;11.70;;
43771;SDS011;59066;54.782;32.024;2023-08-17T07:41:31;17.45;;;10.02;;
43771;SDS011;59066;54.782;32.024;2023-08-17T07:43:59;15.65;;;10.15;;
43771;SDS011;59066;54.782;32.024;2023-08-17T07:46:26;15.45;;;10.05;;
43771;SDS011;59066;54.782;32.024;2023-08-17T07:48:54;14.05;;;12.43;;
43771;SDS011;59066;54.782;32.024;2023-08-17T07:51:21;20.48;;;11.38;;
43771;SDS011;59066;54.782;32.024;2023-08-17T07:53:49;14.45;;;10.48;;
43771;SDS011;59066;54.782;32.024;2023-08-17T07:56:16;17.15;;;10.10;;
43771;SDS011;59066;54.782;32.024;2023-08-17T07:58:44;14.00;;;9.90;;
43771;SDS011;59066;54.782;32.024;2023-08-17T08:01:11;13.02;;;11.73;;
43771;SDS011;59066;54.782;32.024;2023-08-17T08:03:38;12.13;;;10.30;;
43771;SDS011;59066;54.782;32.024;2023-08-17T08:06:06;12.40;;;10.18;;
43771;SDS011;59066;54.782;32.024;2023-08-17T08:08:33;12.90;;;10.70;;
43771;SDS011;59066;54.782;32.024;2023-08-17T08:11:01;13.18;;;10.40;;
43771;SDS011;59066;54.782;32.024;2023-08-17T08:13:28;11.05;;;9.68;;
43771;SDS011;59066;54.782;32.024;2023-08-17T08:15:55;15.95;;;10.65;;
43771;SDS011;59066;54.782;32.024;2023-08-17T08:18:23;21.13;;;12.88;;
43771;SDS011;59066;54.782;32.024;2023-08-17T08:20:50;18.90;;;14.10;;
43771;SDS011;59066;54.782;32.024;2023-08-17T08:23:18;11.25;;;10.15;;
43771;SDS011;59066;54.782;32.024;2023-08-17T08:25:45;13.90;;;10.27;;
43771;SDS011;59066;54.782;32.024;2023-08-17T08:28:13;12.25;;;10.57;;
43771;SDS011;59066;54.782;32.024;2023-08-17T08:30:42;12.57;;;10.05;;
43771;SDS011;59066;54.782;32.024;2023-08-17T08:33:09;13.85;;;11.20;;
43771;SDS011;59066;54.782;32.024;2023-08-17T08:35:37;18.80;;;11.43;;
43771;SDS011;59066;54.782;32.024;2023-08-17T08:38:05;15.73;;;10.30;;
43771;SDS011;59066;54.782;32.024;2023-08-17T08:40:32;13.73;;;11.23;;
43771;SDS011;59066;54.782;32.024;2023-08-17T08:43:05;13.25;;;10.43;;
43771;SDS011;59066;54.782;32.024;2023-08-17T08:45:32;22.02;;;17.45;;
43771;SDS011;59066;54.782;32.024;2023-08-17T08:48:02;15.15;;;10.70;;
43771;SDS011;59066;54.782;32.024;2023-08-17T08:50:31;16.95;;;15.10;;
43771;SDS011;59066;54.782;32.024;2023-08-17T08:53:02;16.17;;;12.57;;
43771;SDS011;59066;54.782;32.024;2023-08-17T08:55:34;16.88;;;15.30;;
43771;SDS011;59066;54.782;32.024;2023-08-17T08:58:11;12.80;;;10.60;;
43771;SDS011;59066;54.782;32.024;2023-08-17T09:00:42;16.17;;;10.85;;
43771;SDS011;59066;54.782;32.024;2023-08-17T09:03:12;15.43;;;13.30;;
43771;SDS011;59066;54.782;32.024;2023-08-17T09:05:42;16.50;;;12.13;;
43771;SDS011;59066;54.782;32.024;2023-08-17T09:08:14;10.07;;;9.10;;
43771;SDS011;59066;54.782;32.024;2023-08-17T09:10:43;13.85;;;11.50;;
43771;SDS011;59066;54.782;32.024;2023-08-17T09:13:11;20.23;;;18.10;;
43771;SDS011;59066;54.782;32.024;2023-08-17T09:15:39;15.70;;;12.98;;
43771;SDS011;59066;54.782;32.024;2023-08-17T09:18:06;23.40;;;18.48;;
43771;SDS011;59066;54.782;32.024;2023-08-17T09:20:43;16.75;;;12.82;;
43771;SDS011;59066;54.782;32.024;2023-08-17T09:23:14;13.65;;;10.85;;
43771;SDS011;59066;54.782;32.024;2023-08-17T09:25:44;14.38;;;10.80;;
43771;SDS011;59066;54.782;32.024;2023-08-17T09:28:13;15.25;;;10.60;;
43771;SDS011;59066;54.782;32.024;2023-08-17T09:30:55;12.65;;;9.63;;
43771;SDS011;59066;54.782;32.024;2023-08-17T09:33:25;13.57;;;9.95;;
43771;SDS011;59066;54.782;32.024;2023-08-17T09:35:54;21.00;;;16.90;;
43771;SDS011;59066;54.782;32.024;2023-08-17T09:38:24;13.90;;;9.50;;
43771;SDS011;59066;54.782;32.024;2023-08-17T09:40:53;14.60;;;10.35;;
43771;SDS011;59066;54.782;32.024;2023-08-17T09:43:21;11.73;;;9.68;;
43771;SDS011;59066;54.782;32.024;2023-08-17T09:45:49;15.73;;;13.98;;
43771;SDS011;59066;54.782;32.024;2023-08-17T09:48:17;15.48;;;13.07;;
43771;SDS011;59066;54.782;32.024;2023-08-17T09:50:45;12.38;;;11.00;;
43771;SDS011;59066;54.782;32.024;2023-08-17T09:53:16;11.32;;;10.20;;
43771;SDS011;59066;54.782;32.024;2023-08-17T09:55:46;15.50;;;10.68;;
43771;SDS011;59066;54.782;32.024;2023-08-17T09:58:14;12.90;;;11.00;;
43771;SDS011;59066;54.782;32.024;2023-08-17T10:00:45;11.70;;;9.77;;
43771;SDS011;59066;54.782;32.024;2023-08-17T10:03:17;13.18;;;10.43;;
43771;SDS011;59066;54.782;32.024;2023-08-17T10:05:58;10.82;;;9.70;;
43771;SDS011;59066;54.782;32.024;2023-08-17T10:08:30;11.10;;;9.90;;
43771;SDS011;59066;54.782;32.024;2023-08-17T10:10:58;24.83;;;16.92;;
43771;SDS011;59066;54.782;32.024;2023-08-17T10:13:35;13.30;;;10.13;;
43771;SDS011;59066;54.782;32.024;2023-08-17T10:16:13;15.35;;;9.73;;
43771;SDS011;59066;54.782;32.024;2023-08-17T10:22:12;11.13;;;9.10;;
43771;SDS011;59066;54.782;32.024;2023-08-17T10:24:45;11.35;;;9.55;;
43771;SDS011;59066;54.782;32.024;2023-08-17T10:27:14;11.10;;;9.02;;
43771;SDS011;59066;54.782;32.024;2023-08-17T10:29:43;10.00;;;8.48;;
43771;SDS011;59066;54.782;32.024;2023-08-17T10:32:12;10.27;;;8.50;;
43771;SDS011;59066;54.782;32.024;2023-08-17T10:34:42;9.90;;;8.38;;
43771;SDS011;59066;54.782;32.024;2023-08-17T10:37:13;9.00;;;7.93;;
43771;SDS011;59066;54.782;32.024;2023-08-17T10:39:45;10.00;;;8.50;;
43771;SDS011;59066;54.782;32.024;2023-08-17T10:42:15;9.63;;;7.78;;
43771;SDS011;59066;54.782;32.024;2023-08-17T10:50:36;10.13;;;8.80;;
43771;SDS011;59066;54.782;32.024;2023-08-17T10:53:11;9.60;;;8.57;;
43771;SDS011;59066;54.782;32.024;2023-08-17T10:55:41;9.73;;;8.30;;
43771;SDS011;59066;54.782;32.024;2023-08-17T10:58:11;10.95;;;7.93;;
43771;SDS011;59066;54.782;32.024;2023-08-17T11:00:41;11.73;;;8.43;;
43771;SDS011;59066;54.782;32.024;2023-08-17T11:03:10;10.93;;;8.02;;
43771;SDS011;59066;54.782;32.024;2023-08-17T11:05:45;10.45;;;8.18;;
43771;SDS011;59066;54.782;32.024;2023-08-17T11:11:07;10.77;;;9.43;;
43771;SDS011;59066;54.782;32.024;2023-08-17T11:13:38;9.70;;;8.35;;
43771;SDS011;59066;54.782;32.024;2023-08-17T11:16:07;12.07;;;8.95;;
43771;SDS011;59066;54.782;32.024;2023-08-17T11:21:09;8.35;;;7.55;;
43771;SDS011;59066;54.782;32.024;2023-08-17T11:23:38;12.93;;;7.85;;
43771;SDS011;59066;54.782;32.024;2023-08-17T11:26:06;9.77;;;7.68;;
43771;SDS011;59066;54.782;32.024;2023-08-17T11:28:34;11.32;;;8.40;;
43771;SDS011;59066;54.782;32.024;2023-08-17T11:31:09;9.35;;;7.75;;
43771;SDS011;59066;54.782;32.024;2023-08-17T11:33:38;12.38;;;7.70;;
43771;SDS011;59066;54.782;32.024;2023-08-17T11:36:07;11.93;;;7.22;;
43771;SDS011;59066;54.782;32.024;2023-08-17T11:38:39;9.80;;;7.18;;
43771;SDS011;59066;54.782;32.024;2023-08-17T11:41:14;11.77;;;6.70;;
43771;SDS011;59066;54.782;32.024;2023-08-17T11:43:44;11.20;;;7.22;;
43771;SDS011;59066;54.782;32.024;2023-08-17T11:46:13;8.85;;;7.68;;
43771;SDS011;59066;54.782;32.024;2023-08-17T11:48:40;9.00;;;7.45;;
43771;SDS011;59066;54.782;32.024;2023-08-17T11:51:08;10.82;;;6.97;;
43771;SDS011;59066;54.782;32.024;2023-08-17T11:53:36;13.15;;;8.10;;
43771;SDS011;59066;54.782;32.024;2023-08-17T11:56:06;9.30;;;7.40;;
43771;SDS011;59066;54.782;32.024;2023-08-17T11:58:41;13.02;;;8.10;;
43771;SDS011;59066;54.782;32.024;2023-08-17T12:01:16;11.60;;;8.23;;
43771;SDS011;59066;54.782;32.024;2023-08-17T12:03:44;13.15;;;7.72;;
43771;SDS011;59066;54.782;32.024;2023-08-17T12:06:12;9.43;;;7.35;;
43771;SDS011;59066;54.782;32.024;2023-08-17T12:08:47;9.85;;;6.43;;
43771;SDS011;59066;54.782;32.024;2023-08-17T12:11:16;7.10;;;6.40;;
43771;SDS011;59066;54.782;32.024;2023-08-17T12:13:49;7.82;;;6.65;;
43771;SDS011;59066;54.782;32.024;2023-08-17T12:16:20;7.57;;;6.60;;
43771;SDS011;59066;54.782;32.024;2023-08-17T12:18:50;9.82;;;6.80;;
43771;SDS011;59066;54.782;32.024;2023-08-17T12:21:22;11.90;;;8.15;;
43771;SDS011;59066;54.782;32.024;2023-08-17T12:23:50;8.30;;;6.97;;
43771;SDS011;59066;54.782;32.024;2023-08-17T12:26:18;6.97;;;6.28;;
43771;SDS011;59066;54.782;32.024;2023-08-17T12:28:50;8.02;;;7.18;;
43771;SDS011;59066;54.782;32.024;2023-08-17T12:31:22;12.02;;;7.80;;
43771;SDS011;59066;54.782;32.024;2023-08-17T12:33:51;9.50;;;6.78;;
43771;SDS011;59066;54.782;32.024;2023-08-17T12:36:19;12.27;;;7.20;;
43771;SDS011;59066;54.782;32.024;2023-08-17T12:38:47;10.43;;;8.05;;
43771;SDS011;59066;54.782;32.024;2023-08-17T12:41:15;8.73;;;7.18;;
43771;SDS011;59066;54.782;32.024;2023-08-17T12:43:43;9.23;;;6.03;;
43771;SDS011;59066;54.782;32.024;2023-08-17T12:46:10;9.82;;;6.90;;
43771;SDS011;59066;54.782;32.024;2023-08-17T12:48:40;10.48;;;7.03;;
43771;SDS011;59066;54.782;32.024;2023-08-17T12:51:08;11.60;;;6.50;;
43771;SDS011;59066;54.782;32.024;2023-08-17T12:53:35;9.52;;;6.60;;
43771;SDS011;59066;54.782;32.024;2023-08-17T12:56:03;7.70;;;6.45;;
43771;SDS011;59066;54.782;32.024;2023-08-17T12:58:30;8.88;;;7.13;;
43771;SDS011;59066;54.782;32.024;2023-08-17T13:00:58;8.85;;;6.88;;
43771;SDS011;59066;54.782;32.024;2023-08-17T13:03:25;9.13;;;6.65;;
43771;SDS011;59066;54.782;32.024;2023-08-17T13:05:53;6.95;;;6.35;;
43771;SDS011;59066;54.782;32.024;2023-08-17T13:08:21;11.73;;;7.40;;
43771;SDS011;59066;54.782;32.024;2023-08-17T13:10:49;7.28;;;6.45;;
43771;SDS011;59066;54.782;32.024;2023-08-17T13:13:16;9.43;;;6.25;;
43771;SDS011;59066;54.782;32.024;2023-08-17T13:15:45;11.40;;;6.93;;
43771;SDS011;59066;54.782;32.024;2023-08-17T13:18:14;13.95;;;8.30;;
43771;SDS011;59066;54.782;32.024;2023-08-17T13:20:45;9.93;;;7.10;;
43771;SDS011;59066;54.782;32.024;2023-08-17T13:23:12;10.35;;;8.43;;
43771;SDS011;59066;54.782;32.024;2023-08-17T13:25:40;8.50;;;6.75;;
43771;SDS011;59066;54.782;32.024;2023-08-17T13:28:07;11.43;;;7.20;;
43771;SDS011;59066;54.782;32.024;2023-08-17T13:30:38;9.15;;;6.45;;
43771;SDS011;59066;54.782;32.024;2023-08-17T13:33:06;10.10;;;6.22;;
43771;SDS011;59066;54.782;32.024;2023-08-17T13:35:34;7.93;;;6.40;;
43771;SDS011;59066;54.782;32.024;2023-08-17T13:38:01;12.23;;;6.72;;
43771;SDS011;59066;54.782;32.024;2023-08-17T13:40:32;7.38;;;6.40;;
43771;SDS011;59066;54.782;32.024;2023-08-17T13:43:00;16.35;;;10.15;;
43771;SDS011;59066;54.782;32.024;2023-08-17T13:45:28;9.73;;;6.10;;
43771;SDS011;59066;54.782;32.024;2023-08-17T13:47:56;12.52;;;6.47;;
43771;SDS011;59066;54.782;32.024;2023-08-17T13:50:23;10.18;;;6.40;;
43771;SDS011;59066;54.782;32.024;2023-08-17T13:52:51;7.30;;;6.57;;
43771;SDS011;59066;54.782;32.024;2023-08-17T13:55:19;8.02;;;5.72;;
43771;SDS011;59066;54.782;32.024;2023-08-17T13:57:46;9.50;;;6.65;;
43771;SDS011;59066;54.782;32.024;2023-08-17T14:00:14;8.60;;;7.38;;
43771;SDS011;59066;54.782;32.024;2023-08-17T14:02:42;6.15;;;5.55;;
43771;SDS011;59066;54.782;32.024;2023-08-17T14:05:09;6.40;;;5.80;;
43771;SDS011;59066;54.782;32.024;2023-08-17T14:07:37;9.68;;;5.75;;
43771;SDS011;59066;54.782;32.024;2023-08-17T14:10:05;9.10;;;6.53;;
43771;SDS011;59066;54.782;32.024;2023-08-17T14:12:39;9.27;;;5.57;;
43771;SDS011;59066;54.782;32.024;2023-08-17T14:15:10;8.10;;;6.65;;
43771;SDS011;59066;54.782;32.024;2023-08-17T14:17:37;7.53;;;5.85;;
43771;SDS011;59066;54.782;32.024;2023-08-17T14:20:05;7.45;;;5.70;;
43771;SDS011;59066;54.782;32.024;2023-08-17T14:22:33;6.65;;;5.80;;
43771;SDS011;59066;54.782;32.024;2023-08-17T14:25:00;6.20;;;5.60;;
43771;SDS011;59066;54.782;32.024;2023-08-17T14:27:28;7.15;;;6.20;;
43771;SDS011;59066;54.782;32.024;2023-08-17T14:29:56;7.28;;;5.60;;
43771;SDS011;59066;54.782;32.024;2023-08-17T14:32:29;7.00;;;5.60;;
43771;SDS011;59066;54.782;32.024;2023-08-17T14:35:00;9.45;;;5.82;;
43771;SDS011;59066;54.782;32.024;2023-08-17T14:37:28;10.35;;;6.03;;
43771;SDS011;59066;54.782;32.024;2023-08-17T14:39:55;6.70;;;5.60;;
43771;SDS011;59066;54.782;32.024;2023-08-17T14:42:23;9.70;;;6.50;;
43771;SDS011;59066;54.782;32.024;2023-08-17T14:44:51;9.05;;;5.78;;
43771;SDS011;59066;54.782;32.024;2023-08-17T14:47:18;8.10;;;6.13;;
43771;SDS011;59066;54.782;32.024;2023-08-17T14:49:47;10.55;;;6.07;;
43771;SDS011;59066;54.782;32.024;2023-08-17T14:52:14;9.02;;;6.30;;